Time;durP1;ratioP1;P1;durP2;ratioP2;P2;SDS_P1;SDS_P2;PMS_P1;PMS_P2;Temp;Humidity;BMP_temperature;BMP_pressure;BME280_temperature;BME280_humidity;BME280_pressure;Samples;Min_cycle;Max_cycle;Signal;HPM_P1;HPM_P2
2021/03/27 00:00:08;;;;;;;6.80;1.90;;;12.30;99.90;;;;;;1857458;75;21104;-74
2021/03/27 00:02:34;;;;;;;4.62;2.40;;;12.40;99.90;;;;;;1854954;75;21594;-74
2021/03/27 00:05:00;;;;;;;7.85;2.37;;;12.40;99.90;;;;;;1847994;75;21458;-74
2021/03/27 00:07:26;;;;;;;6.28;2.80;;;12.30;99.90;;;;;;1853468;75;21520;-74
2021/03/27 00:09:52;;;;;;;6.37;2.62;;;12.30;99.90;;;;;;1850865;76;21521;-74
2021/03/27 00:12:18;;;;;;;15.38;2.77;;;12.30;99.90;;;;;;1848812;76;21505;-75
2021/03/27 00:14:45;;;;;;;7.42;3.25;;;12.30;99.90;;;;;;1868750;75;21533;-74
2021/03/27 00:17:11;;;;;;;3.65;2.45;;;12.20;99.90;;;;;;1858398;76;21080;-74
2021/03/27 00:19:38;;;;;;;7.90;2.47;;;12.20;99.90;;;;;;1827442;76;21156;-74
2021/03/27 00:22:04;;;;;;;4.40;2.33;;;12.20;99.90;;;;;;1861738;76;21127;-74
2021/03/27 00:24:30;;;;;;;5.10;2.65;;;12.20;99.90;;;;;;1852360;75;21168;-74
2021/03/27 00:26:56;;;;;;;3.55;2.20;;;12.20;99.90;;;;;;1859722;76;21158;-74
2021/03/27 00:29:22;;;;;;;4.10;2.27;;;12.10;99.90;;;;;;1858887;75;21509;-74
2021/03/27 00:31:49;;;;;;;2.30;2.10;;;12.10;99.90;;;;;;1852759;76;21529;-73
2021/03/27 00:34:15;;;;;;;3.70;1.80;;;12.20;99.90;;;;;;1866187;75;21642;-74
2021/03/27 00:36:41;;;;;;;2.98;1.80;;;12.20;99.90;;;;;;1856941;76;21511;-74
2021/03/27 00:39:07;;;;;;;2.42;1.55;;;12.10;99.90;;;;;;1851919;75;21598;-74
2021/03/27 00:41:34;;;;;;;5.35;2.05;;;12.10;99.90;;;;;;1849198;76;21564;-74
2021/03/27 00:44:00;;;;;;;3.45;1.82;;;12.00;99.90;;;;;;1865975;75;21162;-74
2021/03/27 00:46:28;;;;;;;3.10;1.70;;;12.00;99.90;;;;;;1848778;75;21062;-73
2021/03/27 00:48:54;;;;;;;3.30;2.20;;;11.90;99.90;;;;;;1862618;75;21175;-74
2021/03/27 00:51:20;;;;;;;3.10;2.00;;;11.80;99.90;;;;;;1849026;75;21098;-74
2021/03/27 00:53:46;;;;;;;2.72;1.82;;;11.70;99.90;;;;;;1861832;75;21089;-75
2021/03/27 00:56:12;;;;;;;3.05;1.82;;;11.60;99.90;;;;;;1862659;75;21057;-74
2021/03/27 00:58:38;;;;;;;2.20;1.72;;;11.50;99.90;;;;;;1856806;75;21086;-75
2021/03/27 01:01:04;;;;;;;4.60;2.33;;;11.40;99.90;;;;;;1852980;74;21079;-75
2021/03/27 01:03:30;;;;;;;6.10;2.05;;;11.30;99.90;;;;;;1853019;76;21156;-74
2021/03/27 01:05:57;;;;;;;3.42;2.05;;;11.30;99.90;;;;;;1863678;76;21080;-73
2021/03/27 01:08:25;;;;;;;3.47;2.00;;;11.20;99.90;;;;;;1860852;76;21086;-75
2021/03/27 01:10:50;;;;;;;4.08;2.37;;;11.20;99.90;;;;;;1858498;75;21163;-74
2021/03/27 01:13:17;;;;;;;5.20;2.75;;;11.10;99.90;;;;;;1850016;76;21098;-75
2021/03/27 01:15:43;;;;;;;11.10;2.33;;;11.10;99.90;;;;;;1846835;76;21054;-74
2021/03/27 01:18:09;;;;;;;5.22;2.10;;;11.00;99.90;;;;;;1840594;77;21085;-75
2021/03/27 01:20:35;;;;;;;3.15;2.05;;;10.90;99.90;;;;;;1858866;76;21162;-74
2021/03/27 01:23:01;;;;;;;6.50;1.98;;;10.90;99.90;;;;;;1856901;76;21098;-75
2021/03/27 01:25:27;;;;;;;2.45;1.90;;;10.90;99.90;;;;;;1849597;76;21085;-75
2021/03/27 01:27:55;;;;;;;3.87;2.00;;;10.90;99.90;;;;;;1851253;75;21085;-74
2021/03/27 01:30:21;;;;;;;3.47;2.22;;;10.90;99.90;;;;;;1859014;76;21099;-75
2021/03/27 01:32:47;;;;;;;3.58;2.10;;;10.90;99.90;;;;;;1855145;75;21085;-73
2021/03/27 01:35:13;;;;;;;4.40;2.00;;;10.90;99.90;;;;;;1854108;76;21210;-72
2021/03/27 01:37:39;;;;;;;3.10;2.05;;;10.90;99.90;;;;;;1855298;76;21085;-75
2021/03/27 01:40:07;;;;;;;5.58;1.98;;;10.80;99.90;;;;;;1855779;76;21159;-75
2021/03/27 01:42:34;;;;;;;3.22;2.00;;;10.90;99.90;;;;;;1848470;75;21155;-73
2021/03/27 01:45:00;;;;;;;4.03;2.12;;;10.90;99.90;;;;;;1853460;76;21176;-74
2021/03/27 01:47:27;;;;;;;3.02;1.85;;;10.80;99.90;;;;;;1860097;75;21163;-75
2021/03/27 01:49:53;;;;;;;2.05;1.80;;;10.80;99.90;;;;;;1860299;76;21108;-75
2021/03/27 01:52:20;;;;;;;5.37;1.95;;;10.80;99.90;;;;;;1842280;75;21054;-75
2021/03/27 01:54:46;;;;;;;2.65;1.67;;;10.90;99.90;;;;;;1854594;75;21096;-75
2021/03/27 01:57:12;;;;;;;3.00;1.92;;;10.80;99.90;;;;;;1846189;76;21089;-75
2021/03/27 01:59:38;;;;;;;12.18;1.80;;;10.90;99.90;;;;;;1851265;75;21098;-74
2021/03/27 02:02:04;;;;;;;5.90;1.80;;;10.80;99.90;;;;;;1845270;75;21087;-73
2021/03/27 02:04:30;;;;;;;4.33;1.72;;;10.80;99.90;;;;;;1859214;76;21101;-73
2021/03/27 02:06:56;;;;;;;2.25;1.87;;;10.90;99.90;;;;;;1853403;75;21548;-73
2021/03/27 02:09:22;;;;;;;2.92;1.75;;;10.90;99.90;;;;;;1846945;76;21513;-73
2021/03/27 02:11:49;;;;;;;2.42;1.87;;;10.90;99.90;;;;;;1851752;76;21621;-74
2021/03/27 02:14:15;;;;;;;3.92;2.10;;;10.90;99.90;;;;;;1857365;76;21603;-75
2021/03/27 02:16:41;;;;;;;2.00;1.67;;;10.80;99.90;;;;;;1845615;75;21575;-75
2021/03/27 02:19:07;;;;;;;4.22;2.00;;;10.80;99.90;;;;;;1842801;76;21160;-75
2021/03/27 02:21:35;;;;;;;4.80;1.95;;;10.80;99.90;;;;;;1844749;76;21159;-75
2021/03/27 02:24:01;;;;;;;2.60;1.92;;;10.70;99.90;;;;;;1853451;76;21083;-74
2021/03/27 02:26:27;;;;;;;2.95;1.60;;;10.70;99.90;;;;;;1860539;76;21211;-75
2021/03/27 02:28:53;;;;;;;5.00;2.17;;;10.60;99.90;;;;;;1859821;75;21084;-75
2021/03/27 02:31:19;;;;;;;5.05;2.02;;;10.40;99.90;;;;;;1854264;76;21101;-75
2021/03/27 02:33:45;;;;;;;3.65;1.90;;;10.30;99.90;;;;;;1860924;76;21053;-75
2021/03/27 02:36:11;;;;;;;4.35;1.77;;;10.30;99.90;;;;;;1857595;76;21097;-75
2021/03/27 02:38:37;;;;;;;3.22;1.87;;;10.30;99.90;;;;;;1857954;76;21229;-76
2021/03/27 02:41:05;;;;;;;2.58;1.80;;;10.30;99.90;;;;;;1855126;76;21580;-76
2021/03/27 02:43:31;;;;;;;3.55;2.12;;;10.20;99.90;;;;;;1861908;76;21099;-75
2021/03/27 02:45:57;;;;;;;3.27;2.27;;;10.10;99.90;;;;;;1855977;76;21100;-75
2021/03/27 02:48:25;;;;;;;6.20;1.92;;;10.10;99.90;;;;;;1844130;76;21098;-76
2021/03/27 02:50:54;;;;;;;7.45;2.00;;;10.10;99.90;;;;;;1853538;75;21073;-75
2021/03/27 02:53:19;;;;;;;2.92;1.70;;;10.10;99.90;;;;;;1852053;75;21158;-75
2021/03/27 02:55:46;;;;;;;6.12;2.12;;;10.10;99.90;;;;;;1850286;75;21190;-75
2021/03/27 03:00:56;;;;;;;4.85;1.85;;;9.90;99.90;;;;;;1854936;74;21082;-75
2021/03/27 03:03:22;;;;;;;2.50;1.62;;;9.90;99.90;;;;;;1855163;76;21171;-75
2021/03/27 03:05:48;;;;;;;4.08;1.85;;;10.00;99.90;;;;;;1850676;75;21097;-76
2021/03/27 03:08:14;;;;;;;2.90;1.92;;;9.90;99.90;;;;;;1852775;76;21061;-76
2021/03/27 03:10:40;;;;;;;2.45;1.55;;;9.90;99.90;;;;;;1858355;76;21105;-76
2021/03/27 03:13:06;;;;;;;2.65;1.82;;;9.90;99.90;;;;;;1848974;76;21101;-76
2021/03/27 03:15:33;;;;;;;3.75;1.95;;;9.90;99.90;;;;;;1854150;75;21509;-75
2021/03/27 03:17:59;;;;;;;1.82;1.50;;;9.90;99.90;;;;;;1857900;76;21518;-75
2021/03/27 03:20:25;;;;;;;2.55;1.70;;;9.90;99.90;;;;;;1856991;76;21533;-75
2021/03/27 03:22:54;;;;;;;1.72;1.35;;;10.00;99.90;;;;;;1861056;75;21144;-75
2021/03/27 03:25:22;;;;;;;1.60;1.50;;;9.90;99.90;;;;;;1858170;75;21202;-75
2021/03/27 03:27:48;;;;;;;2.30;1.75;;;9.90;99.90;;;;;;1841249;76;21474;-75
2021/03/27 03:30:14;;;;;;;2.15;1.67;;;10.00;99.90;;;;;;1852230;75;21160;-76
2021/03/27 03:32:40;;;;;;;2.08;1.37;;;9.90;99.90;;;;;;1879378;75;21049;-76
2021/03/27 03:35:06;;;;;;;1.85;1.40;;;10.00;99.90;;;;;;1877696;75;21080;-76
2021/03/27 03:37:32;;;;;;;1.82;1.57;;;9.90;99.90;;;;;;1879978;74;21096;-76
2021/03/27 03:39:59;;;;;;;3.72;2.37;;;9.90;99.90;;;;;;1880651;74;21084;-76
2021/03/27 03:42:25;;;;;;;3.37;2.05;;;9.90;99.90;;;;;;1878783;75;21054;-76
2021/03/27 03:44:58;;;;;;;2.65;1.77;;;9.90;99.90;;;;;;1876927;75;21154;-76
2021/03/27 03:47:24;;;;;;;2.62;1.07;;;10.00;99.90;;;;;;1881574;74;21092;-75
2021/03/27 03:49:50;;;;;;;3.37;1.77;;;9.90;99.90;;;;;;1879663;74;21093;-75
2021/03/27 03:52:18;;;;;;;2.25;1.75;;;9.90;99.90;;;;;;1877678;75;21112;-75
2021/03/27 03:54:44;;;;;;;2.95;1.25;;;10.00;99.90;;;;;;1880736;75;21049;-75
2021/03/27 03:57:10;;;;;;;2.77;1.55;;;10.00;99.90;;;;;;1876945;75;21092;-76
2021/03/27 03:59:36;;;;;;;1.60;1.50;;;10.00;99.90;;;;;;1880631;74;21112;-76
2021/03/27 04:02:02;;;;;;;1.95;1.40;;;9.90;99.90;;;;;;1878466;74;21215;-75
2021/03/27 04:04:28;;;;;;;3.77;1.70;;;9.90;99.90;;;;;;1878646;75;21041;-76
2021/03/27 04:06:54;;;;;;;0.75;0.70;;;9.90;99.90;;;;;;1879638;74;21092;-76
2021/03/27 04:09:21;;;;;;;0.62;0.60;;;9.80;99.90;;;;;;1877699;75;21586;-75
2021/03/27 04:11:47;;;;;;;0.72;0.50;;;9.60;99.90;;;;;;1876788;75;21524;-76
2021/03/27 04:14:13;;;;;;;1.32;0.40;;;9.50;99.90;;;;;;1879892;75;21485;-76
2021/03/27 04:16:39;;;;;;;0.30;0.30;;;9.40;99.90;;;;;;1878950;75;21518;-76
2021/03/27 04:19:05;;;;;;;0.10;0.10;;;9.30;99.90;;;;;;1877716;74;21150;-76
2021/03/27 04:21:31;;;;;;;0.88;0.30;;;9.30;99.90;;;;;;1878854;75;21157;-75
2021/03/27 04:23:57;;;;;;;0.28;0.28;;;9.20;99.90;;;;;;1881785;75;21146;-75
2021/03/27 04:26:24;;;;;;;0.78;0.30;;;9.20;99.90;;;;;;1878166;75;21088;-76
2021/03/27 04:28:50;;;;;;;3.67;0.35;;;9.20;99.90;;;;;;1878877;74;21080;-76
2021/03/27 04:31:16;;;;;;;1.02;0.40;;;9.10;99.90;;;;;;1878897;74;21202;-76
2021/03/27 04:33:42;;;;;;;0.30;0.20;;;9.00;99.90;;;;;;1878922;74;21080;-76
2021/03/27 04:36:08;;;;;;;0.37;0.37;;;8.90;99.90;;;;;;1879138;75;21053;-76
2021/03/27 04:38:35;;;;;;;0.90;0.40;;;8.90;99.90;;;;;;1876711;75;21084;-76
2021/03/27 04:41:01;;;;;;;1.27;0.35;;;8.90;99.90;;;;;;1877097;74;21158;-76
2021/03/27 04:43:27;;;;;;;0.30;0.30;;;8.80;99.90;;;;;;1881389;74;21079;-75
2021/03/27 04:45:53;;;;;;;0.20;0.20;;;8.80;99.90;;;;;;1878767;75;21142;-76
2021/03/27 04:48:19;;;;;;;1.37;0.42;;;8.80;99.90;;;;;;1879761;75;21050;-76
2021/03/27 04:50:45;;;;;;;0.88;0.37;;;8.80;99.90;;;;;;1877797;74;21080;-76
2021/03/27 04:53:11;;;;;;;0.20;0.20;;;8.80;99.90;;;;;;1876713;74;21089;-76
2021/03/27 04:55:37;;;;;;;0.68;0.47;;;8.70;99.90;;;;;;1878716;75;21085;-76
2021/03/27 04:58:04;;;;;;;0.20;0.20;;;8.70;99.90;;;;;;1878546;75;21170;-76
2021/03/27 05:00:30;;;;;;;0.30;0.30;;;8.70;99.90;;;;;;1879755;75;21505;-76
2021/03/27 05:02:56;;;;;;;0.30;0.30;;;8.60;99.90;;;;;;1878412;74;21452;-76
2021/03/27 05:05:22;;;;;;;0.40;0.15;;;8.60;99.90;;;;;;1881773;74;21084;-75
2021/03/27 05:07:48;;;;;;;1.25;0.40;;;8.60;99.90;;;;;;1879626;74;21142;-76
2021/03/27 05:10:14;;;;;;;0.42;0.42;;;8.60;99.90;;;;;;1877709;74;21084;-75
2021/03/27 05:12:40;;;;;;;0.20;0.20;;;8.50;99.90;;;;;;1877738;75;21155;-76
2021/03/27 05:15:07;;;;;;;0.55;0.33;;;8.50;99.90;;;;;;1878201;74;21132;-76
2021/03/27 05:17:33;;;;;;;5.03;0.45;;;8.40;99.90;;;;;;1868429;75;21478;-77
2021/03/27 05:19:59;;;;;;;0.20;0.20;;;8.40;99.90;;;;;;1879175;75;21536;-76
2021/03/27 05:22:25;;;;;;;0.28;0.20;;;8.40;99.90;;;;;;1880792;75;21057;-76
2021/03/27 05:24:53;;;;;;;2.05;0.30;;;8.40;99.90;;;;;;1880814;75;21146;-75
2021/03/27 05:27:19;;;;;;;0.23;0.20;;;8.30;99.90;;;;;;1880850;75;21468;-76
2021/03/27 05:29:45;;;;;;;0.10;0.10;;;8.40;99.90;;;;;;1879193;75;21210;-76
2021/03/27 05:32:11;;;;;;;1.35;0.30;;;8.30;99.90;;;;;;1879422;74;21206;-75
2021/03/27 05:34:37;;;;;;;0.10;0.10;;;8.20;99.90;;;;;;1877725;75;21084;-75
2021/03/27 05:37:03;;;;;;;0.20;0.20;;;8.20;99.90;;;;;;1879477;74;21083;-76
2021/03/27 05:39:29;;;;;;;0.47;0.33;;;8.10;99.90;;;;;;1878713;75;21053;-76
2021/03/27 05:41:56;;;;;;;0.33;0.30;;;8.20;99.90;;;;;;1878939;75;21076;-76
2021/03/27 05:44:22;;;;;;;1.92;0.30;;;8.20;99.90;;;;;;1877705;74;21088;-76
2021/03/27 05:46:48;;;;;;;0.47;0.30;;;8.10;99.90;;;;;;1877821;74;21084;-76
2021/03/27 05:49:14;;;;;;;0.88;0.20;;;8.10;99.90;;;;;;1878508;75;21099;-76
2021/03/27 05:51:40;;;;;;;0.40;0.20;;;8.00;99.90;;;;;;1877729;75;21158;-76
2021/03/27 05:54:06;;;;;;;0.30;0.30;;;8.10;99.90;;;;;;1876998;74;21112;-76
2021/03/27 05:56:32;;;;;;;0.20;0.20;;;8.10;99.90;;;;;;1881079;74;21507;-76
2021/03/27 05:58:58;;;;;;;2.08;0.30;;;8.10;99.90;;;;;;1880474;74;21554;-75
2021/03/27 06:01:25;;;;;;;0.20;0.20;;;8.00;99.90;;;;;;1878498;75;21085;-76
2021/03/27 06:03:51;;;;;;;0.20;0.20;;;7.90;99.90;;;;;;1878299;74;21151;-76
2021/03/27 06:06:17;;;;;;;0.13;0.13;;;8.00;99.90;;;;;;1877718;75;21205;-76
2021/03/27 06:08:43;;;;;;;0.10;0.10;;;8.10;99.90;;;;;;1878616;74;21081;-76
2021/03/27 06:11:09;;;;;;;0.20;0.20;;;8.20;99.90;;;;;;1876754;75;21057;-76
2021/03/27 06:13:35;;;;;;;5.47;0.20;;;8.10;99.90;;;;;;1879641;74;21146;-75
2021/03/27 06:16:01;;;;;;;0.82;0.30;;;8.20;99.90;;;;;;1878750;74;21084;-76
2021/03/27 06:18:27;;;;;;;0.20;0.20;;;8.20;99.90;;;;;;1879428;75;21091;-75
2021/03/27 06:20:54;;;;;;;0.60;0.30;;;8.10;99.90;;;;;;1878767;75;21581;-73
2021/03/27 06:23:20;;;;;;;0.10;0.10;;;8.10;99.90;;;;;;1880342;75;21492;-74
2021/03/27 06:25:46;;;;;;;0.13;0.13;;;8.10;99.90;;;;;;1880519;75;21473;-74
2021/03/27 06:28:12;;;;;;;0.50;0.17;;;8.10;99.90;;;;;;1877323;74;21622;-72
2021/03/27 06:30:38;;;;;;;0.55;0.20;;;8.20;99.90;;;;;;1879745;75;21072;-73
2021/03/27 06:33:04;;;;;;;0.55;0.20;;;8.30;99.90;;;;;;1879547;74;21299;-73
2021/03/27 06:35:30;;;;;;;0.20;0.20;;;8.40;99.90;;;;;;1876847;75;21142;-74
2021/03/27 06:37:56;;;;;;;2.90;0.20;;;8.20;99.90;;;;;;1879406;75;21053;-74
2021/03/27 06:40:22;;;;;;;0.30;0.30;;;7.80;99.90;;;;;;1878517;75;21076;-72
2021/03/27 06:42:50;;;;;;;0.25;0.25;;;7.70;99.90;;;;;;1877575;75;21266;-72
2021/03/27 06:45:16;;;;;;;0.20;0.20;;;7.70;99.90;;;;;;1881404;74;21061;-73
2021/03/27 06:47:43;;;;;;;0.85;0.70;;;7.70;99.90;;;;;;1879865;74;21141;-73
2021/03/27 06:50:10;;;;;;;0.28;0.20;;;7.80;99.90;;;;;;1877597;75;21213;-71
2021/03/27 06:52:36;;;;;;;0.60;0.25;;;7.70;99.90;;;;;;1879766;74;21081;-72
2021/03/27 06:55:02;;;;;;;0.65;0.30;;;7.70;99.90;;;;;;1878381;75;21077;-72
2021/03/27 06:57:28;;;;;;;0.42;0.20;;;7.70;99.90;;;;;;1881345;75;21049;-71
2021/03/27 06:59:55;;;;;;;0.93;0.28;;;7.90;99.90;;;;;;1879169;75;21082;-72
2021/03/27 07:02:21;;;;;;;3.22;0.30;;;7.90;99.90;;;;;;1878991;74;21527;-72
2021/03/27 07:04:47;;;;;;;0.37;0.25;;;8.10;99.90;;;;;;1877377;74;21136;-72
2021/03/27 07:07:13;;;;;;;0.45;0.20;;;8.10;99.90;;;;;;1876743;75;21081;-72
2021/03/27 07:09:39;;;;;;;1.40;0.98;;;8.20;99.90;;;;;;1877987;74;21084;-71
2021/03/27 07:12:05;;;;;;;0.23;0.20;;;8.00;99.90;;;;;;1878174;75;21146;-72
2021/03/27 07:14:31;;;;;;;1.40;0.20;;;8.00;99.90;;;;;;1867959;75;21081;-71
2021/03/27 07:16:58;;;;;;;0.47;0.40;;;8.00;99.90;;;;;;1877060;74;21093;-72
2021/03/27 07:19:24;;;;;;;2.42;0.47;;;8.00;99.90;;;;;;1881294;75;21158;-71
2021/03/27 07:21:51;;;;;;;2.42;1.00;;;8.00;99.90;;;;;;1881209;74;21500;-72
2021/03/27 07:24:17;;;;;;;0.40;0.30;;;8.00;99.90;;;;;;1877107;75;21135;-73
2021/03/27 07:26:43;;;;;;;4.58;0.40;;;8.00;99.90;;;;;;1877785;75;21080;-72
2021/03/27 07:29:09;;;;;;;0.50;0.25;;;8.00;99.90;;;;;;1877931;74;21092;-73
2021/03/27 07:31:36;;;;;;;2.05;0.50;;;8.10;99.90;;;;;;1880184;74;21171;-71
2021/03/27 07:34:02;;;;;;;0.20;0.20;;;8.20;99.90;;;;;;1878704;75;21088;-74
2021/03/27 07:36:28;;;;;;;0.40;0.30;;;8.30;99.90;;;;;;1878670;75;21150;-74
2021/03/27 07:38:54;;;;;;;0.50;0.40;;;8.40;99.90;;;;;;1879540;75;21558;-74
2021/03/27 07:41:20;;;;;;;0.95;0.40;;;8.30;99.90;;;;;;1878579;75;21508;-75
2021/03/27 07:43:46;;;;;;;0.72;0.23;;;8.30;99.90;;;;;;1876734;74;21562;-72
2021/03/27 07:46:12;;;;;;;5.00;0.42;;;8.50;99.90;;;;;;1876937;74;21052;-74
2021/03/27 07:48:38;;;;;;;0.62;0.20;;;8.60;99.90;;;;;;1877667;75;21088;-74
2021/03/27 07:51:05;;;;;;;1.35;0.72;;;8.50;99.90;;;;;;1877051;74;21142;-73
2021/03/27 07:53:31;;;;;;;1.75;0.60;;;8.60;99.90;;;;;;1882018;74;21088;-72
2021/03/27 07:55:58;;;;;;;1.45;0.70;;;8.60;99.90;;;;;;1884336;74;21080;-74
2021/03/27 07:58:24;;;;;;;1.12;0.50;;;8.60;99.90;;;;;;1877641;74;21524;-74
2021/03/27 08:00:50;;;;;;;1.47;0.40;;;8.60;99.90;;;;;;1880838;74;21508;-74
2021/03/27 08:03:16;;;;;;;1.60;0.80;;;8.60;99.90;;;;;;1881029;74;21462;-73
2021/03/27 08:05:42;;;;;;;2.05;0.50;;;8.80;99.90;;;;;;1878165;75;21072;-74
2021/03/27 08:08:08;;;;;;;2.10;0.70;;;9.00;99.90;;;;;;1878650;75;21096;-71
2021/03/27 08:10:35;;;;;;;2.37;0.82;;;9.20;99.90;;;;;;1878917;74;21081;-72
2021/03/27 08:13:01;;;;;;;0.30;0.30;;;9.20;99.90;;;;;;1878599;74;21092;-73
2021/03/27 08:15:27;;;;;;;1.20;0.50;;;9.10;99.90;;;;;;1877534;75;21085;-73
2021/03/27 08:17:53;;;;;;;4.78;0.68;;;9.10;99.90;;;;;;1878888;75;21073;-73
2021/03/27 08:20:19;;;;;;;1.65;1.02;;;9.10;99.90;;;;;;1879994;74;21061;-72
2021/03/27 08:22:45;;;;;;;1.82;0.17;;;9.00;99.90;;;;;;1877566;74;21143;-73
2021/03/27 08:25:11;;;;;;;0.20;0.20;;;9.00;99.90;;;;;;1877715;74;21512;-72
2021/03/27 08:27:37;;;;;;;0.65;0.42;;;9.00;99.90;;;;;;1880203;74;21602;-73
2021/03/27 08:30:04;;;;;;;5.47;0.30;;;9.50;99.90;;;;;;1880131;74;21692;-72
2021/03/27 08:32:30;;;;;;;1.40;0.35;;;9.50;99.90;;;;;;1877378;74;21049;-74
2021/03/27 08:34:56;;;;;;;9.18;0.60;;;10.00;99.90;;;;;;1881874;74;21052;-72
2021/03/27 08:37:24;;;;;;;1.40;0.50;;;10.30;99.90;;;;;;1880401;75;21073;-70
2021/03/27 08:39:50;;;;;;;0.60;0.30;;;10.40;99.90;;;;;;1879143;75;21512;-73
2021/03/27 08:42:16;;;;;;;2.17;0.57;;;10.50;99.90;;;;;;1877700;75;21497;-73
2021/03/27 08:44:42;;;;;;;0.88;0.20;;;10.90;99.90;;;;;;1877313;75;21447;-72
2021/03/27 08:47:08;;;;;;;1.20;0.35;;;10.50;99.90;;;;;;1877220;75;21489;-73
2021/03/27 08:49:34;;;;;;;1.05;0.40;;;10.30;99.90;;;;;;1878495;75;21081;-73
2021/03/27 08:52:00;;;;;;;0.40;0.25;;;10.40;99.90;;;;;;1877633;75;21081;-72
2021/03/27 08:54:27;;;;;;;0.90;0.40;;;10.60;99.90;;;;;;1877182;75;21047;-72
2021/03/27 08:56:53;;;;;;;5.30;0.40;;;10.30;99.90;;;;;;1878216;75;21030;-73
2021/03/27 08:59:19;;;;;;;0.37;0.37;;;10.10;99.90;;;;;;1877182;75;21153;-73
2021/03/27 09:01:45;;;;;;;1.00;0.30;;;9.90;99.90;;;;;;1877139;75;21608;-73
2021/03/27 09:04:11;;;;;;;3.10;0.55;;;10.10;99.90;;;;;;1877215;75;21587;-73
2021/03/27 09:06:37;;;;;;;0.20;0.20;;;10.40;99.90;;;;;;1879505;75;21482;-73
2021/03/27 09:09:03;;;;;;;0.55;0.40;;;10.80;99.90;;;;;;1877111;75;21442;-73
2021/03/27 09:11:30;;;;;;;1.50;0.40;;;11.30;99.90;;;;;;1876850;75;21054;-71
2021/03/27 09:13:56;;;;;;;0.33;0.20;;;11.10;99.90;;;;;;1876863;75;21141;-74
2021/03/27 09:16:22;;;;;;;0.95;0.35;;;11.10;99.90;;;;;;1876881;75;21093;-73
2021/03/27 09:18:48;;;;;;;3.22;0.30;;;11.20;99.90;;;;;;1875824;75;21082;-73
2021/03/27 09:21:14;;;;;;;0.62;0.15;;;10.90;99.90;;;;;;1877681;75;21070;-73
2021/03/27 09:23:40;;;;;;;0.45;0.40;;;10.80;99.90;;;;;;1877633;75;21081;-73
2021/03/27 09:26:06;;;;;;;3.50;0.35;;;11.10;99.90;;;;;;1880183;75;21078;-73
2021/03/27 09:28:33;;;;;;;0.30;0.30;;;11.10;99.90;;;;;;1877236;75;21269;-72
2021/03/27 09:30:59;;;;;;;1.62;0.50;;;10.70;99.90;;;;;;1877204;75;21082;-72
2021/03/27 09:33:25;;;;;;;0.30;0.20;;;10.70;99.90;;;;;;1877699;75;21089;-72
2021/03/27 09:35:51;;;;;;;0.65;0.35;;;11.00;99.90;;;;;;1878145;75;21078;-73
2021/03/27 09:38:17;;;;;;;4.47;0.30;;;11.40;99.90;;;;;;1876685;75;21086;-71
2021/03/27 09:40:43;;;;;;;1.40;0.30;;;11.00;99.90;;;;;;1877744;75;21266;-73
2021/03/27 09:43:09;;;;;;;0.95;0.50;;;11.40;99.90;;;;;;1879017;75;21603;-71
2021/03/27 09:45:35;;;;;;;1.12;0.30;;;11.30;99.30;;;;;;1876652;75;21462;-71
2021/03/27 09:48:02;;;;;;;1.95;0.20;;;11.60;99.90;;;;;;1881079;75;21563;-71
2021/03/27 09:50:28;;;;;;;5.92;1.30;;;11.70;99.60;;;;;;1878129;75;21600;-70
2021/03/27 09:52:54;;;;;;;1.52;0.37;;;11.80;97.40;;;;;;1877047;75;21529;-71
2021/03/27 09:55:20;;;;;;;0.10;0.10;;;11.40;97.50;;;;;;1878606;75;21043;-70
2021/03/27 09:57:46;;;;;;;0.50;0.30;;;11.10;96.70;;;;;;1876612;75;21085;-71
2021/03/27 10:00:12;;;;;;;0.55;0.30;;;11.20;97.10;;;;;;1878323;75;21074;-72
2021/03/27 10:02:38;;;;;;;0.33;0.20;;;11.30;97.10;;;;;;1877548;75;21086;-72
2021/03/27 10:05:04;;;;;;;0.60;0.20;;;11.30;96.20;;;;;;1878322;74;21042;-72
2021/03/27 10:07:31;;;;;;;0.62;0.17;;;11.20;95.70;;;;;;1880097;75;21096;-72
2021/03/27 10:09:57;;;;;;;0.28;0.28;;;11.00;95.30;;;;;;1876661;75;21069;-72
2021/03/27 10:12:23;;;;;;;1.37;0.23;;;11.20;95.10;;;;;;1877309;75;21070;-73
2021/03/27 10:14:49;;;;;;;0.20;0.20;;;11.30;94.50;;;;;;1878791;75;21046;-73
2021/03/27 10:17:15;;;;;;;0.60;0.30;;;11.50;95.50;;;;;;1878747;75;21070;-73
2021/03/27 10:19:43;;;;;;;0.53;0.23;;;11.90;94.80;;;;;;1878601;75;21080;-72
2021/03/27 10:22:09;;;;;;;0.35;0.35;;;12.30;93.80;;;;;;1878087;75;21131;-73
2021/03/27 10:24:35;;;;;;;0.90;0.30;;;11.90;94.10;;;;;;1881218;75;21050;-73
2021/03/27 10:27:01;;;;;;;0.33;0.20;;;11.80;93.90;;;;;;1879907;75;21073;-73
2021/03/27 10:29:39;;;;;;;1.57;0.23;;;12.10;92.60;;;;;;1878414;75;21081;-73
2021/03/27 10:32:04;;;;;;;0.28;0.23;;;12.00;92.90;;;;;;1879051;75;21557;-73
2021/03/27 10:34:30;;;;;;;0.10;0.10;;;11.80;93.50;;;;;;1878773;75;21505;-73
2021/03/27 10:36:57;;;;;;;0.75;0.28;;;12.00;92.70;;;;;;1876692;75;21485;-74
2021/03/27 10:39:23;;;;;;;2.37;0.20;;;11.60;93.90;;;;;;1881276;75;21471;-74
2021/03/27 10:41:49;;;;;;;0.75;0.40;;;11.60;94.10;;;;;;1877054;75;21506;-74
2021/03/27 10:44:16;;;;;;;24.75;1.15;;;11.80;93.20;;;;;;1879689;75;21564;-74
2021/03/27 10:46:43;;;;;;;0.37;0.10;;;11.90;91.90;;;;;;1876989;75;21147;-73
2021/03/27 10:49:11;;;;;;;1.12;0.30;;;11.60;91.60;;;;;;1850852;76;21097;-74
2021/03/27 10:51:38;;;;;;;1.92;0.20;;;11.10;93.20;;;;;;1881547;74;21473;-73
2021/03/27 10:54:04;;;;;;;1.12;0.37;;;11.00;92.50;;;;;;1877632;74;21053;-73
2021/03/27 10:56:30;;;;;;;10.80;1.10;;;11.10;91.80;;;;;;1877534;75;21147;-73
2021/03/27 10:58:56;;;;;;;0.53;0.40;;;11.10;90.80;;;;;;1876770;74;21088;-73
2021/03/27 11:01:22;;;;;;;2.60;0.60;;;10.80;91.40;;;;;;1876527;74;21054;-73
2021/03/27 11:03:48;;;;;;;0.30;0.20;;;10.70;91.60;;;;;;1881050;75;21181;-73
2021/03/27 11:06:15;;;;;;;0.35;0.20;;;10.60;91.80;;;;;;1877134;74;21080;-73
2021/03/27 11:08:41;;;;;;;0.65;0.30;;;10.70;91.70;;;;;;1876776;75;21089;-73
2021/03/27 11:11:07;;;;;;;0.70;0.33;;;10.80;91.40;;;;;;1878871;75;21084;-73
2021/03/27 11:13:33;;;;;;;2.70;0.33;;;10.70;90.80;;;;;;1883565;74;21049;-74
2021/03/27 11:15:59;;;;;;;1.37;0.30;;;10.70;91.70;;;;;;1877589;74;21150;-73
2021/03/27 11:18:25;;;;;;;0.37;0.20;;;11.00;92.00;;;;;;1879468;75;21088;-74
2021/03/27 11:20:51;;;;;;;6.75;0.57;;;11.80;90.80;;;;;;1881435;74;21092;-74
2021/03/27 11:23:17;;;;;;;0.90;0.25;;;12.70;86.90;;;;;;1881766;74;21296;-73
2021/03/27 11:25:43;;;;;;;0.55;0.35;;;13.00;85.50;;;;;;1878778;75;21496;-73
2021/03/27 11:28:10;;;;;;;2.55;0.55;;;13.00;85.00;;;;;;1876890;75;21570;-74
2021/03/27 11:30:36;;;;;;;0.30;0.30;;;12.60;83.00;;;;;;1878362;75;21496;-75
2021/03/27 11:33:04;;;;;;;1.77;0.30;;;11.80;86.80;;;;;;1880438;74;21100;-75
2021/03/27 11:35:30;;;;;;;0.57;0.33;;;11.90;87.00;;;;;;1879752;74;21195;-75
2021/03/27 11:37:56;;;;;;;0.85;0.40;;;12.30;86.80;;;;;;1879428;74;21275;-77
2021/03/27 11:40:22;;;;;;;0.10;0.10;;;13.50;84.00;;;;;;1877477;75;21157;-74
2021/03/27 11:42:48;;;;;;;0.60;0.60;;;13.20;82.70;;;;;;1877791;74;21462;-73
2021/03/27 11:45:14;;;;;;;0.42;0.40;;;13.40;81.10;;;;;;1877736;75;21080;-73
2021/03/27 11:47:41;;;;;;;3.12;0.40;;;13.40;81.20;;;;;;1876776;74;21123;-73
2021/03/27 11:50:07;;;;;;;0.45;0.30;;;12.90;81.10;;;;;;1882811;74;21080;-74
2021/03/27 11:52:34;;;;;;;0.37;0.15;;;13.30;80.80;;;;;;1878155;75;21146;-74
2021/03/27 11:55:00;;;;;;;0.70;0.40;;;13.50;80.30;;;;;;1876768;74;21088;-74
2021/03/27 11:57:26;;;;;;;0.62;0.23;;;13.70;79.10;;;;;;1878601;74;21046;-74
2021/03/27 12:02:36;;;;;;;3.90;1.15;;;13.80;78.10;;;;;;1881109;74;21065;-74
2021/03/27 12:05:02;;;;;;;21.52;1.70;;;12.60;80.90;;;;;;1878846;74;21154;-74
2021/03/27 12:07:33;;;;;;;0.57;0.37;;;12.60;82.40;;;;;;1879543;74;21674;-74
2021/03/27 12:09:56;;;;;;;4.10;0.60;;;12.60;80.20;;;;;;1877298;75;21096;-75
2021/03/27 12:12:26;;;;;;;3.50;0.62;;;12.20;81.10;;;;;;1877767;74;21442;-74
2021/03/27 12:14:50;;;;;;;0.57;0.50;;;12.10;83.20;;;;;;1876853;74;21124;-75
2021/03/27 12:17:16;;;;;;;0.82;0.55;;;12.30;85.10;;;;;;1877002;74;21158;-74
2021/03/27 12:19:43;;;;;;;3.70;0.30;;;12.30;84.60;;;;;;1877883;75;21084;-74
2021/03/27 12:22:09;;;;;;;2.77;0.62;;;12.20;84.90;;;;;;1878774;74;21146;-76
2021/03/27 12:24:35;;;;;;;0.40;0.40;;;12.10;85.40;;;;;;1880594;75;21092;-76
2021/03/27 12:27:01;;;;;;;3.27;0.70;;;12.10;86.70;;;;;;1878721;74;21175;-75
2021/03/27 12:29:27;;;;;;;2.27;0.50;;;12.20;86.30;;;;;;1880718;74;21449;-75
2021/03/27 12:31:53;;;;;;;0.90;0.20;;;12.80;86.30;;;;;;1880454;74;21574;-75
2021/03/27 12:34:19;;;;;;;3.42;0.60;;;13.20;83.70;;;;;;1876554;74;21555;-76
2021/03/27 12:36:45;;;;;;;1.37;0.45;;;13.80;80.20;;;;;;1877888;75;21489;-75
2021/03/27 12:39:12;;;;;;;1.22;0.40;;;13.20;80.30;;;;;;1876930;74;21592;-75
2021/03/27 12:41:38;;;;;;;1.75;0.60;;;12.70;81.70;;;;;;1878710;74;21524;-74
2021/03/27 12:44:04;;;;;;;6.75;0.57;;;12.50;81.80;;;;;;1878026;74;21084;-73
2021/03/27 12:46:30;;;;;;;1.67;0.57;;;11.90;82.00;;;;;;1878172;75;21084;-72
2021/03/27 12:48:56;;;;;;;1.90;0.40;;;11.70;82.40;;;;;;1879916;74;21083;-73